createdAt,value
2019-04-16T00:01:00.939Z,96.5896
2019-04-16T00:02:10.012Z,96.4965
2019-04-16T00:03:20.349Z,97.3312
2019-04-16T00:04:31.949Z,97.7935
2019-04-16T00:05:40.299Z,97.7798
2019-04-16T00:06:48.275Z,97.5311
2019-04-16T00:07:56.964Z,96.8994
2019-04-16T00:09:05.919Z,96.6201
2019-04-16T00:10:14.959Z,97.4212
2019-04-16T00:11:23.294Z,97.1923
2019-04-16T00:12:32.940Z,97.2488
2019-04-16T00:13:41.292Z,97.1740
2019-04-16T00:14:50.902Z,97.0504
2019-04-16T00:15:59.944Z,96.5881
2019-04-16T00:17:09.013Z,95.8053
2019-04-16T00:18:18.744Z,94.1985
2019-04-16T00:19:26.891Z,94.4823
2019-04-16T00:20:37.933Z,94.5418
2019-04-16T00:21:46.987Z,93.0449
2019-04-16T00:22:56.016Z,93.6599
2019-04-16T00:24:04.796Z,94.1024
2019-04-16T00:25:13.975Z,94.6883
2019-04-16T00:26:26.580Z,95.3033
2019-04-16T00:27:35.734Z,95.2377
2019-04-16T00:28:44.285Z,94.5434
2019-04-16T00:29:53.005Z,94.7387
2019-04-16T00:31:01.277Z,94.8165
2019-04-16T00:32:10.011Z,94.8486
2019-04-16T00:33:18.920Z,95.5261
2019-04-16T00:34:27.901Z,95.6878
2019-04-16T00:35:36.951Z,95.3429
2019-04-16T00:36:48.419Z,95.0637
2019-04-16T00:37:58.415Z,94.7982
2019-04-16T00:39:06.953Z,94.8669
2019-04-16T00:40:15.910Z,94.7936
2019-04-16T00:41:25.057Z,94.4503
2019-04-16T00:42:34.002Z,94.3694
2019-04-16T00:43:44.083Z,94.3557
2019-04-16T00:44:54.006Z,95.1247
2019-04-16T00:46:03.110Z,96.1074
2019-04-16T00:47:11.967Z,96.4645
2019-04-16T00:48:20.907Z,96.2859
2019-04-16T00:49:31.003Z,95.6817
2019-04-16T00:50:39.301Z,95.1705
2019-04-16T00:51:47.967Z,95.0652
2019-04-16T00:52:56.293Z,95.0729
2019-04-16T00:54:09.891Z,95.0134
2019-04-16T00:55:18.295Z,94.7021
2019-04-16T00:56:26.888Z,94.8898
2019-04-16T00:57:35.950Z,95.4498
2019-04-16T00:58:44.973Z,96.2463
2019-04-16T00:59:56.283Z,96.4233
2019-04-16T01:01:05.264Z,96.4935
2019-04-16T01:02:12.921Z,96.4691
2019-04-16T01:03:21.991Z,96.4645
2019-04-16T01:04:30.968Z,96.1730
2019-04-16T01:05:40.301Z,96.5438
2019-04-16T01:06:48.871Z,96.8948
2019-04-16T01:07:57.297Z,97.0504
2019-04-16T01:09:05.988Z,97.0550
2019-04-16T01:10:13.314Z,96.7727
2019-04-16T01:11:21.971Z,96.6705
2019-04-16T01:12:30.267Z,96.9375
2019-04-16T01:13:38.910Z,96.6934
2019-04-16T01:14:47.973Z,96.7407
2019-04-16T01:15:57.194Z,96.9375
2019-04-16T01:17:05.982Z,97.3526
2019-04-16T01:18:14.302Z,97.3770
2019-04-16T01:19:23.028Z,97.0962
2019-04-16T01:20:31.906Z,96.7575
2019-04-16T01:21:44.517Z,96.6583
2019-04-16T01:22:54.081Z,96.7361
2019-04-16T01:24:02.931Z,96.3973
2019-04-16T01:25:11.970Z,95.9060
2019-04-16T01:26:21.220Z,95.6771
2019-04-16T01:27:29.606Z,95.6451
2019-04-16T01:28:38.016Z,96.0403
2019-04-16T01:29:46.960Z,96.8322
2019-04-16T01:30:55.998Z,97.2747
2019-04-16T01:32:10.292Z,97.3434
2019-04-16T01:33:18.292Z,97.3083
2019-04-16T01:34:26.945Z,97.2534
2019-04-16T01:35:35.306Z,97.8973
2019-04-16T01:36:44.342Z,97.8607
2019-04-16T01:37:56.538Z,97.8012
2019-04-16T01:39:16.087Z,97.7661
2019-04-16T01:40:19.354Z,97.8515
2019-04-16T01:41:27.990Z,97.8790
2019-04-16T01:42:36.952Z,98.1765
2019-04-16T01:43:45.991Z,98.1094
2019-04-16T01:44:54.056Z,98.0133
2019-04-16T01:46:02.609Z,98.2361
2019-04-16T01:47:11.871Z,98.2818
2019-04-16T01:48:19.318Z,98.2269
2019-04-16T01:49:27.933Z,97.9263
2019-04-16T01:50:36.278Z,97.5418
2019-04-16T01:51:47.445Z,97.3861
2019-04-16T01:52:57.265Z,97.9339
2019-04-16T01:54:05.928Z,98.0987
2019-04-16T01:55:15.057Z,98.2971
2019-04-16T01:56:27.976Z,98.5443
2019-04-16T01:57:36.281Z,98.9654
2019-04-16T01:58:44.335Z,98.9792
2019-04-16T01:59:53.887Z,99.0387
2019-04-16T02:01:02.364Z,99.4034
2019-04-16T02:02:14.579Z,99.6063
2019-04-16T02:03:24.979Z,99.3988
2019-04-16T02:04:33.781Z,99.0600
2019-04-16T02:05:42.982Z,98.8830
2019-04-16T02:06:54.308Z,98.6496
2019-04-16T02:08:05.329Z,98.0591
2019-04-16T02:09:22.501Z,98.1445
2019-04-16T02:10:26.908Z,98.2910
2019-04-16T02:11:38.816Z,98.4115
2019-04-16T02:12:50.953Z,98.4436
2019-04-16T02:13:59.977Z,98.5992
2019-04-16T02:15:09.094Z,98.6481
2019-04-16T02:16:17.968Z,98.7366
2019-04-16T02:17:27.054Z,98.7213
2019-04-16T02:18:36.917Z,98.4161
2019-04-16T02:19:45.262Z,98.1949
2019-04-16T02:20:52.846Z,97.9156
2019-04-16T02:22:02.015Z,97.6516
2019-04-16T02:23:13.581Z,97.3571
2019-04-16T02:24:24.297Z,97.6837
2019-04-16T02:25:33.947Z,97.5235
2019-04-16T02:26:42.972Z,97.0428
2019-04-16T02:27:54.222Z,96.6567
2019-04-16T02:29:04.965Z,96.6308
2019-04-16T02:30:13.018Z,97.3953
2019-04-16T02:31:21.294Z,97.9858
2019-04-16T02:32:30.043Z,98.4924
2019-04-16T02:33:38.979Z,98.7640
2019-04-16T02:34:47.299Z,98.5840
2019-04-16T02:35:55.978Z,98.6709
2019-04-16T02:37:04.937Z,98.8998
2019-04-16T02:38:14.182Z,98.7213
2019-04-16T02:39:46.288Z,98.6938
2019-04-16T02:40:36.905Z,98.5443
2019-04-16T02:41:45.965Z,98.7778
2019-04-16T02:42:54.969Z,98.8678
2019-04-16T02:44:04.026Z,99.1424
2019-04-16T02:45:13.168Z,98.9822
2019-04-16T02:46:22.066Z,98.8907
2019-04-16T02:47:30.982Z,98.5214
2019-04-16T02:48:38.935Z,97.9202
2019-04-16T02:49:47.298Z,98.1125
2019-04-16T02:50:55.311Z,98.4207
2019-04-16T02:52:04.017Z,98.2544
2019-04-16T02:53:13.113Z,98.9685
2019-04-16T02:54:21.929Z,99.2889
2019-04-16T02:55:30.919Z,99.2981
2019-04-16T02:56:39.398Z,99.5377
2019-04-16T02:57:48.046Z,99.4903
2019-04-16T02:58:56.299Z,99.1058
2019-04-16T03:00:05.384Z,99.0524
2019-04-16T03:01:13.295Z,98.8678
2019-04-16T03:02:23.091Z,98.7717
2019-04-16T03:03:32.635Z,98.7961
2019-04-16T03:04:41.857Z,98.6770
2019-04-16T03:05:50.996Z,98.5885
2019-04-16T03:07:02.784Z,98.7625
2019-04-16T03:08:12.265Z,98.8495
2019-04-16T03:09:21.000Z,98.9471
2019-04-16T03:10:29.357Z,99.1257
2019-04-16T03:11:37.383Z,99.2172
2019-04-16T03:12:46.131Z,99.1836
2019-04-16T03:13:58.288Z,99.1791
2019-04-16T03:15:07.294Z,99.4217
2019-04-16T03:16:14.919Z,99.4629
2019-04-16T03:17:24.182Z,99.2676
2019-04-16T03:18:33.168Z,99.1348
2019-04-16T03:19:41.290Z,98.9090
2019-04-16T03:20:52.474Z,98.6114
2019-04-16T03:22:03.736Z,98.0087
2019-04-16T03:23:12.283Z,98.0499
2019-04-16T03:24:20.950Z,98.0453
2019-04-16T03:25:30.034Z,98.4344
2019-04-16T03:26:38.913Z,98.8174
2019-04-16T03:27:47.932Z,98.9334
2019-04-16T03:28:59.133Z,99.0616
2019-04-16T03:30:07.365Z,99.1379
2019-04-16T03:31:22.287Z,98.9334
2019-04-16T03:32:35.308Z,99.1150
2019-04-16T03:33:50.308Z,99.0799
2019-04-16T03:34:57.278Z,98.8266
2019-04-16T03:36:06.090Z,98.4741
2019-04-16T03:37:14.297Z,98.5168
2019-04-16T03:38:23.203Z,98.9242
2019-04-16T03:39:32.466Z,98.9837
2019-04-16T03:40:39.917Z,98.8235
2019-04-16T03:41:48.288Z,98.7228
2019-04-16T03:42:59.005Z,97.8073
2019-04-16T03:44:09.002Z,97.3709
2019-04-16T03:45:17.276Z,97.3251
2019-04-16T03:46:26.258Z,96.7407
2019-04-16T03:47:35.014Z,96.7956
2019-04-16T03:48:44.020Z,96.9055
2019-04-16T03:49:56.400Z,96.1395
2019-04-16T03:51:06.476Z,96.3088
2019-04-16T03:52:15.163Z,96.8597
2019-04-16T03:53:25.086Z,97.1328
2019-04-16T03:54:34.998Z,97.3678
2019-04-16T03:55:43.933Z,97.5174
2019-04-16T03:56:52.253Z,97.4395
2019-04-16T03:58:05.171Z,97.2808
2019-04-16T03:59:13.887Z,97.2747
2019-04-16T04:00:22.309Z,97.3983
2019-04-16T04:01:30.977Z,97.2702
2019-04-16T04:02:39.881Z,97.1283
2019-04-16T04:03:48.288Z,97.7386
2019-04-16T04:04:57.628Z,98.2651
2019-04-16T04:06:09.402Z,98.3932
2019-04-16T04:07:18.290Z,98.4283
2019-04-16T04:08:27.008Z,98.8968
2019-04-16T04:09:36.005Z,99.2294
2019-04-16T04:10:44.999Z,99.2798
2019-04-16T04:11:53.986Z,99.3362
2019-04-16T04:13:04.921Z,99.5331
2019-04-16T04:14:13.284Z,99.3301
2019-04-16T04:15:25.924Z,99.2431
2019-04-16T04:16:35.948Z,99.1257
2019-04-16T04:17:45.310Z,99.2172
2019-04-16T04:18:53.905Z,99.4598
2019-04-16T04:20:02.930Z,99.4232
2019-04-16T04:21:11.993Z,99.3591
2019-04-16T04:22:22.720Z,99.1104
2019-04-16T04:23:34.291Z,99.2081
2019-04-16T04:24:43.055Z,99.3347
2019-04-16T04:25:51.285Z,99.2996
2019-04-16T04:26:59.273Z,99.3988
2019-04-16T04:28:08.249Z,99.5926
2019-04-16T04:29:16.957Z,99.6338
2019-04-16T04:30:28.906Z,99.5499
2019-04-16T04:31:38.964Z,99.6704
2019-04-16T04:32:51.013Z,99.5926
2019-04-16T04:34:00.013Z,99.6841
2019-04-16T04:35:09.193Z,99.6826
2019-04-16T04:36:19.602Z,99.4720
2019-04-16T04:37:30.904Z,99.6185
2019-04-16T04:38:40.309Z,99.4049
2019-04-16T04:39:48.313Z,99.3484
2019-04-16T04:40:59.623Z,98.9837
2019-04-16T04:42:09.009Z,98.8632
2019-04-16T04:43:17.281Z,98.9242
2019-04-16T04:44:25.961Z,98.6999
2019-04-16T04:45:37.634Z,98.5168
2019-04-16T04:46:48.965Z,98.4756
2019-04-16T04:47:58.065Z,99.1058
2019-04-16T04:49:07.204Z,99.6200
2019-04-16T04:50:15.946Z,99.7238
2019-04-16T04:51:24.295Z,99.6780
2019-04-16T04:52:32.941Z,99.5834
2019-04-16T04:53:41.940Z,99.1669
2019-04-16T04:54:51.409Z,99.0845
2019-04-16T04:56:03.963Z,98.9319
2019-04-16T04:57:12.953Z,98.7808
2019-04-16T04:58:21.918Z,98.6313
2019-04-16T04:59:30.398Z,98.6572
2019-04-16T05:00:40.425Z,98.7991
2019-04-16T05:01:49.340Z,99.0661
2019-04-16T05:02:57.267Z,99.0784
2019-04-16T05:04:05.681Z,98.9273
2019-04-16T05:05:15.254Z,98.8876
2019-04-16T05:06:26.735Z,98.6450
2019-04-16T05:07:36.464Z,98.6358
2019-04-16T05:08:45.008Z,98.5489
2019-04-16T05:09:53.955Z,98.3841
2019-04-16T05:11:03.209Z,98.3383
2019-04-16T05:12:11.931Z,98.4482
2019-04-16T05:13:23.958Z,98.4192
2019-04-16T05:14:33.945Z,98.3841
2019-04-16T05:15:43.241Z,98.4573
2019-04-16T05:16:51.384Z,98.5397
2019-04-16T05:18:00.053Z,98.4710
2019-04-16T05:19:13.839Z,98.3963
2019-04-16T05:20:22.392Z,98.4253
2019-04-16T05:21:31.147Z,98.2834
2019-04-16T05:22:40.985Z,98.3978
2019-04-16T05:23:50.007Z,98.4665
2019-04-16T05:25:01.344Z,98.4390
2019-04-16T05:26:11.797Z,98.4573
2019-04-16T05:27:21.165Z,98.4619
2019-04-16T05:28:30.011Z,98.4527
2019-04-16T05:29:38.302Z,98.6709
2019-04-16T05:30:51.860Z,98.5565
2019-04-16T05:32:00.278Z,98.6252
2019-04-16T05:33:08.268Z,98.7778
2019-04-16T05:34:18.815Z,98.8830
2019-04-16T05:35:28.233Z,98.9288
2019-04-16T05:36:36.390Z,99.0280
2019-04-16T05:37:43.929Z,99.0280
2019-04-16T05:38:55.445Z,99.2065
2019-04-16T05:40:05.932Z,99.3667
2019-04-16T05:41:20.264Z,99.1943
2019-04-16T05:42:27.307Z,99.2859
2019-04-16T05:43:36.231Z,99.4324
2019-04-16T05:44:44.273Z,99.4308
2019-04-16T05:45:52.336Z,99.2767
2019-04-16T05:47:01.145Z,99.3164
2019-04-16T05:48:11.186Z,99.1562
2019-04-16T05:49:24.855Z,99.2584
2019-04-16T05:50:33.293Z,99.2660
2019-04-16T05:51:42.668Z,99.2447
2019-04-16T05:52:52.168Z,99.3439
2019-04-16T05:54:00.370Z,99.3164
2019-04-16T05:55:09.063Z,99.5270
2019-04-16T05:56:22.641Z,99.2523
2019-04-16T05:57:31.371Z,98.6954
2019-04-16T05:58:39.910Z,98.4024
2019-04-16T05:59:49.029Z,98.4604
2019-04-16T06:00:57.988Z,98.2101
2019-04-16T06:02:07.137Z,97.6516
2019-04-16T06:03:20.669Z,97.6226
2019-04-16T06:04:30.023Z,97.6410
2019-04-16T06:05:37.972Z,97.4716
2019-04-16T06:06:47.159Z,97.5906
2019-04-16T06:07:55.576Z,97.4044
2019-04-16T06:09:02.755Z,97.1847
2019-04-16T06:10:17.057Z,97.3449
2019-04-16T06:11:29.224Z,97.5586
2019-04-16T06:12:40.167Z,96.7315
2019-04-16T06:13:48.948Z,95.5596
2019-04-16T06:14:57.997Z,94.8302
2019-04-16T06:16:06.925Z,94.4884
2019-04-16T06:17:15.965Z,94.3038
2019-04-16T06:18:24.894Z,94.5708
2019-04-16T06:19:34.441Z,94.7173
2019-04-16T06:20:43.059Z,94.3145
2019-04-16T06:24:08.376Z,94.5418
2019-04-16T06:25:18.183Z,92.3644
2019-04-16T06:26:27.958Z,93.5134
2019-04-16T06:27:38.668Z,93.2372
2019-04-16T06:28:48.333Z,92.9778
2019-04-16T06:30:01.210Z,92.6970
2019-04-16T06:31:11.337Z,92.4132
2019-04-16T06:32:22.154Z,93.0922
2019-04-16T06:33:31.674Z,92.3598
2019-04-16T06:34:41.933Z,91.4580
2019-04-16T06:35:51.835Z,92.3033
2019-04-16T06:37:01.958Z,91.3008
2019-04-16T06:38:12.053Z,91.8685
2019-04-16T06:39:22.045Z,92.3629
2019-04-16T06:40:32.852Z,92.2225
2019-04-16T06:41:47.665Z,92.6024
2019-04-16T06:42:58.001Z,92.9046
2019-04-16T06:44:09.878Z,94.4656
2019-04-16T06:45:20.499Z,94.7219
2019-04-16T06:46:29.755Z,94.4411
2019-04-16T06:47:41.782Z,93.2250
2019-04-16T06:48:51.290Z,94.8898
2019-04-16T06:50:00.306Z,93.8750
2019-04-16T06:51:12.507Z,93.0968
2019-04-16T06:52:21.909Z,92.1111
2019-04-16T06:53:32.317Z,92.8252
2019-04-16T06:54:45.310Z,92.1157
2019-04-16T06:55:56.786Z,92.1767
2019-04-16T06:57:05.949Z,91.6579
2019-04-16T06:58:16.428Z,89.8451
2019-04-16T06:59:29.337Z,88.9754
2019-04-16T07:00:40.005Z,90.3914
2019-04-16T07:01:50.068Z,88.8197
2019-04-16T07:03:02.468Z,90.6188
2019-04-16T07:04:13.005Z,89.3874
2019-04-16T07:05:33.266Z,89.9733
2019-04-16T07:06:43.730Z,88.8243
2019-04-16T07:07:54.237Z,87.6661
2019-04-16T07:09:04.390Z,87.9240
2019-04-16T07:10:15.047Z,86.8574
2019-04-16T07:11:26.161Z,86.5782
2019-04-16T07:13:58.362Z,86.6270
2019-04-16T07:15:07.699Z,87.6997
2019-04-16T07:16:16.330Z,82.9511
2019-04-16T07:17:26.052Z,84.4800
2019-04-16T07:18:38.579Z,82.5544
2019-04-16T07:19:48.289Z,83.4379
2019-04-16T07:20:57.355Z,85.5970
2019-04-16T07:22:07.040Z,84.4541
2019-04-16T07:23:17.767Z,83.1220
2019-04-16T07:24:30.807Z,81.7288
2019-04-16T07:25:44.144Z,82.4308
2019-04-16T07:26:56.618Z,84.2420
2019-04-16T07:28:09.272Z,82.5299
2019-04-16T07:29:24.307Z,82.1561
2019-04-16T07:30:38.419Z,82.6123
2019-04-16T07:31:53.251Z,82.9572
2019-04-16T07:33:05.524Z,81.4694
2019-04-16T07:34:14.289Z,84.2329
2019-04-16T07:35:27.889Z,84.3763
2019-04-16T07:36:42.101Z,84.0101
2019-04-16T07:37:53.018Z,84.0558
2019-04-16T07:39:07.631Z,84.0635
2019-04-16T07:40:16.369Z,82.3529
2019-04-16T07:41:27.295Z,83.5981
2019-04-16T07:42:51.692Z,82.8733
2019-04-16T07:43:57.218Z,83.2532
2019-04-16T07:45:11.431Z,84.7456
2019-04-16T07:46:21.392Z,83.3921
2019-04-16T07:47:32.966Z,81.7533
2019-04-16T07:48:45.984Z,82.6597
2019-04-16T07:49:59.855Z,82.1088
2019-04-16T07:51:10.360Z,82.5360
2019-04-16T07:52:21.334Z,82.3423
2019-04-16T07:53:31.538Z,80.8835
2019-04-16T07:54:40.311Z,80.5814
2019-04-16T07:55:49.431Z,79.4186
2019-04-16T07:56:58.314Z,79.5285
2019-04-16T07:58:08.365Z,78.8907
2019-04-16T07:59:19.026Z,78.9975
2019-04-16T08:00:29.119Z,80.0870
2019-04-16T08:01:39.932Z,78.6938
2019-04-16T08:02:53.867Z,76.6247
2019-04-16T08:04:03.612Z,76.9970
2019-04-16T08:05:12.328Z,76.7620
2019-04-16T08:06:21.334Z,75.5459
2019-04-16T08:07:32.251Z,76.6979
2019-04-16T08:08:42.646Z,78.5245
2019-04-16T08:09:51.302Z,75.4864
2019-04-16T08:12:33.326Z,75.3796
2019-04-16T08:13:45.764Z,73.2235
2019-04-16T08:14:54.362Z,76.9375
2019-04-16T08:16:04.317Z,77.1283
2019-04-16T08:17:14.031Z,76.4828
2019-04-16T08:19:44.797Z,79.2248
2019-04-16T08:21:01.701Z,76.2585
2019-04-16T08:22:15.530Z,75.2972
2019-04-16T08:23:25.077Z,75.0790
2019-04-16T08:24:34.393Z,74.6654
2019-04-16T08:25:44.761Z,74.8714
2019-04-16T08:26:56.254Z,75.4025
2019-04-16T08:28:09.443Z,74.7372
2019-04-16T08:29:18.501Z,74.3130
2019-04-16T08:30:27.391Z,74.4091
2019-04-16T08:33:05.481Z,75.6451
2019-04-16T08:35:39.339Z,75.6039
2019-04-16T08:38:20.674Z,73.1914
2019-04-16T08:39:29.375Z,72.5444
2019-04-16T08:42:06.817Z,76.1669
2019-04-16T08:43:22.356Z,74.8150
2019-04-16T08:44:35.796Z,71.2032
2019-04-16T08:49:54.081Z,72.2438
2019-04-16T08:52:26.290Z,71.4595
2019-04-16T08:54:55.400Z,71.3100
2019-04-16T08:56:05.020Z,72.5902
2019-04-16T08:57:18.041Z,71.0155
2019-04-16T08:59:54.858Z,71.6670
2019-04-16T09:01:04.296Z,74.0246
2019-04-16T09:02:13.816Z,74.8806
2019-04-16T09:03:26.716Z,71.6152
2019-04-16T09:04:37.311Z,72.4773
2019-04-16T09:05:46.293Z,71.9768
2019-04-16T09:07:09.634Z,72.2423
2019-04-16T09:08:13.943Z,71.5114
2019-04-16T09:09:25.555Z,70.9422
2019-04-16T09:10:34.390Z,70.7866
2019-04-16T09:11:44.194Z,73.0205
2019-04-16T09:13:03.319Z,68.2017
2019-04-16T09:14:16.841Z,69.1859
2019-04-16T09:15:29.343Z,70.1060
2019-04-16T09:16:45.219Z,72.6360
2019-04-16T09:17:57.093Z,71.6854
2019-04-16T09:19:08.593Z,68.5084
2019-04-16T09:20:17.272Z,71.0979
2019-04-16T09:21:31.255Z,69.6056
2019-04-16T09:24:08.862Z,71.1757
2019-04-16T09:25:22.987Z,68.8548
2019-04-16T09:26:36.437Z,66.5583
2019-04-16T09:30:30.925Z,64.6891
2019-04-16T09:33:01.886Z,63.1708
2019-04-16T09:34:10.481Z,66.4607
2019-04-16T09:35:20.752Z,65.3681
2019-04-16T09:40:36.588Z,68.7861
2019-04-16T09:42:01.755Z,68.5298
2019-04-16T09:43:17.441Z,61.8738
2019-04-16T09:47:16.733Z,61.9486
2019-04-16T09:52:38.562Z,61.6144
2019-04-16T09:55:19.634Z,65.1301
2019-04-16T09:56:30.116Z,60.5371
2019-04-16T09:57:39.994Z,61.4725
2019-04-16T10:03:01.356Z,64.8539
2019-04-16T10:04:15.655Z,59.3942
2019-04-16T10:09:37.586Z,65.2750
2019-04-16T10:13:35.747Z,58.4878
2019-04-16T10:14:48.576Z,59.9832
2019-04-16T10:15:57.403Z,59.1821
2019-04-16T10:17:06.341Z,61.5595
2019-04-16T10:19:56.724Z,59.2828
2019-04-16T10:21:08.474Z,55.7961
2019-04-16T10:22:17.310Z,56.8582
2019-04-16T10:23:29.673Z,57.0626
2019-04-16T10:24:59.775Z,56.2066
2019-04-16T10:26:08.348Z,54.9538
2019-04-16T10:28:39.346Z,57.4441
2019-04-16T10:31:14.699Z,55.6863
2019-04-16T10:38:16.410Z,52.3476
2019-04-16T10:39:26.358Z,53.3181
2019-04-16T10:40:39.933Z,57.2000
2019-04-16T10:43:09.336Z,57.2931
2019-04-16T10:45:51.170Z,49.7948
2019-04-16T10:47:01.492Z,51.7220
2019-04-16T10:49:30.473Z,52.6726
2019-04-16T10:52:04.855Z,52.6955
2019-04-16T10:54:39.817Z,56.0296
2019-04-16T10:55:50.557Z,50.6630
2019-04-16T10:56:59.313Z,52.3659
2019-04-16T10:58:10.147Z,52.6406
2019-04-16T10:59:23.027Z,51.5480
2019-04-16T11:00:39.373Z,55.1263
2019-04-16T11:04:35.953Z,51.1254
2019-04-16T11:05:45.372Z,54.1939
2019-04-16T11:06:58.927Z,53.2174
2019-04-16T11:08:09.431Z,51.5206
2019-04-16T11:09:22.097Z,55.5154
2019-04-16T11:10:31.345Z,52.1477
2019-04-16T11:11:44.898Z,51.8990
2019-04-16T11:12:54.317Z,55.7717
2019-04-16T11:14:03.376Z,52.5811
2019-04-16T11:15:35.246Z,51.0857
2019-04-16T11:16:45.032Z,52.0241
2019-04-16T11:19:24.561Z,52.7184
2019-04-16T11:20:34.643Z,53.3547
2019-04-16T11:21:44.713Z,52.5124
2019-04-16T11:22:56.041Z,51.1803
2019-04-16T11:24:08.191Z,55.2468
2019-04-16T11:25:21.218Z,52.0912
2019-04-16T11:26:32.950Z,52.8283
2019-04-16T11:27:42.445Z,52.0974
2019-04-16T11:31:35.345Z,56.4172
2019-04-16T11:32:43.667Z,53.2921
2019-04-16T11:39:29.250Z,53.7270
2019-04-16T11:42:13.101Z,49.4041
2019-04-16T11:43:25.747Z,51.2398
2019-04-16T11:44:38.178Z,48.5313
2019-04-16T11:45:48.136Z,50.5043
2019-04-16T11:46:58.409Z,47.9210
2019-04-16T11:48:07.381Z,51.7800
2019-04-16T11:49:18.294Z,49.8756
2019-04-16T11:50:29.650Z,46.9474
2019-04-16T11:51:38.250Z,48.0415
2019-04-16T11:52:48.364Z,50.6233
2019-04-16T11:54:00.699Z,55.2148
2019-04-16T11:55:10.067Z,56.0326
2019-04-16T11:56:22.497Z,56.2036
2019-04-16T11:57:37.069Z,50.0008
2019-04-16T11:58:47.541Z,57.6089
2019-04-16T12:00:06.714Z,53.2723
2019-04-16T12:01:11.354Z,51.8944
2019-04-16T12:02:20.557Z,52.6818
2019-04-16T12:03:34.928Z,53.4432
2019-04-16T12:04:55.856Z,55.3414
2019-04-16T12:06:10.623Z,52.1019
2019-04-16T12:07:20.003Z,57.0230
2019-04-16T12:08:30.004Z,53.0068
2019-04-16T12:09:39.358Z,53.3639
2019-04-16T12:10:49.381Z,56.0479
2019-04-16T12:12:00.281Z,57.9873
2019-04-16T12:13:09.909Z,55.2682
2019-04-16T12:14:30.775Z,54.1665
2019-04-16T12:15:36.541Z,54.7570
2019-04-16T12:16:46.101Z,56.9726
2019-04-16T12:17:55.487Z,50.9926
2019-04-16T12:19:05.243Z,52.7932
2019-04-16T12:20:14.386Z,51.9280
2019-04-16T12:21:24.244Z,53.6629
2019-04-16T12:22:36.962Z,51.8441
2019-04-16T12:23:47.090Z,52.7337
2019-04-16T12:24:57.530Z,54.5129
2019-04-16T12:26:09.404Z,56.3897
2019-04-16T12:27:19.747Z,54.4686
2019-04-16T12:28:30.123Z,53.8323
2019-04-16T12:29:41.435Z,55.0820
2019-04-16T12:30:51.365Z,54.8424
2019-04-16T12:32:03.588Z,55.6252
2019-04-16T12:33:15.198Z,55.9960
2019-04-16T12:34:25.736Z,59.1089
2019-04-16T12:35:35.657Z,51.5572
2019-04-16T12:36:46.859Z,51.9265
2019-04-16T12:37:58.433Z,51.3039
2019-04-16T12:39:10.140Z,52.3674
2019-04-16T12:40:21.172Z,50.7057
2019-04-16T12:41:30.298Z,50.0191
2019-04-16T12:42:42.875Z,53.7133
2019-04-16T12:43:51.789Z,49.9184
